Time;durP1;ratioP1;P1;durP2;ratioP2;P2;SDS_P1;SDS_P2;PMS_P1;PMS_P2;Temp;Humidity;BMP_temperature;BMP_pressure;BME280_temperature;BME280_humidity;BME280_pressure;Samples;Min_cycle;Max_cycle;Signal;HPM_P1;HPM_P2
2024/02/27 00:02:46;;;;;;;188.30;73.33;;;2.90;99.90;4.90;96053.00;;;;4990957;28;20502;-83
2024/02/27 00:05:34;;;;;;;184.70;70.10;;;2.90;99.90;5.20;96053.00;;;;4994430;28;20445;-84
2024/02/27 00:08:23;;;;;;;188.37;70.17;;;2.90;99.90;4.90;96061.00;;;;4994114;28;20438;-84
2024/02/27 00:11:14;;;;;;;194.83;76.43;;;2.90;99.90;4.80;96054.00;;;;4995712;28;20469;-83
2024/02/27 00:14:05;;;;;;;193.80;76.17;;;2.90;99.90;4.90;96062.00;;;;4987452;28;20537;-82
2024/02/27 00:16:54;;;;;;;187.53;72.40;;;2.90;99.90;5.00;96058.00;;;;4993848;28;20441;-84
2024/02/27 00:19:42;;;;;;;193.47;73.80;;;2.90;99.90;5.00;96053.00;;;;4983238;28;20486;-85
2024/02/27 00:22:32;;;;;;;192.77;73.57;;;;;4.90;96062.00;;;;4987351;28;21117;-86
2024/02/27 00:25:21;;;;;;;182.13;70.67;;;1.60;99.90;4.70;96065.00;;;;4993179;28;20423;-86
2024/02/27 00:28:11;;;;;;;203.00;78.63;;;2.80;99.90;4.70;96067.00;;;;4990569;28;20437;-85
2024/02/27 00:31:01;;;;;;;195.33;72.80;;;2.70;99.90;4.70;96065.00;;;;4991809;28;20462;-86
2024/02/27 00:33:50;;;;;;;184.37;68.47;;;2.70;99.90;4.50;96062.00;;;;4987366;28;20465;-84
2024/02/27 00:36:39;;;;;;;191.77;71.70;;;;;3.80;96063.00;;;;4991325;28;20435;-86
2024/02/27 00:39:28;;;;;;;189.30;72.03;;;2.60;99.90;4.00;96066.00;;;;4984647;28;20454;-84
2024/02/27 00:42:17;;;;;;;193.83;73.60;;;2.50;99.90;4.30;96072.00;;;;5001407;28;20513;-82
2024/02/27 00:45:07;;;;;;;194.70;75.67;;;2.40;99.90;4.80;96075.00;;;;4994256;28;20438;-84
2024/02/27 00:47:57;;;;;;;189.90;72.33;;;2.50;99.90;4.90;96076.00;;;;4985912;28;20441;-85
2024/02/27 00:50:47;;;;;;;188.27;71.70;;;2.60;99.90;4.60;96067.00;;;;4989380;28;20481;-84
2024/02/27 00:53:36;;;;;;;188.53;70.50;;;;;4.60;96074.00;;;;4997677;28;20426;-84
2024/02/27 00:56:25;;;;;;;189.60;71.77;;;2.50;99.90;4.70;96086.00;;;;4997826;28;20442;-85
2024/02/27 00:59:14;;;;;;;198.53;79.23;;;2.50;99.90;4.70;96078.00;;;;5027977;22;20503;-65
2024/02/27 01:02:03;;;;;;;192.50;76.53;;;2.50;99.90;4.40;96079.00;;;;5044158;28;20964;-65
2024/02/27 01:04:53;;;;;;;187.77;70.70;;;2.40;99.90;4.40;96081.00;;;;5033120;28;20447;-66
2024/02/27 01:07:42;;;;;;;192.33;73.10;;;2.40;99.90;4.40;96071.00;;;;5015259;28;20430;-66
2024/02/27 01:10:31;;;;;;;191.60;71.83;;;2.40;99.90;4.20;96063.00;;;;5016616;28;20440;-66
2024/02/27 01:13:20;;;;;;;188.97;70.83;;;2.40;99.90;4.40;96078.00;;;;5022581;28;20479;-66
2024/02/27 01:16:09;;;;;;;191.27;75.80;;;2.40;99.90;4.40;96080.00;;;;5034229;28;20941;-65
2024/02/27 01:18:58;;;;;;;183.93;69.13;;;2.40;99.90;4.40;96079.00;;;;5030863;28;20439;-66
2024/02/27 01:21:48;;;;;;;185.67;69.50;;;2.40;99.90;4.60;96074.00;;;;5024824;28;20438;-65
2024/02/27 01:24:38;;;;;;;189.90;73.20;;;2.30;99.90;4.40;96073.00;;;;5023672;28;20995;-66
2024/02/27 01:27:29;;;;;;;186.37;69.77;;;2.30;99.90;4.40;96080.00;;;;5023059;28;20436;-66
2024/02/27 01:30:18;;;;;;;190.73;73.37;;;2.30;99.90;4.30;96075.00;;;;5028098;28;20444;-66
2024/02/27 01:33:07;;;;;;;187.53;73.97;;;2.20;99.90;4.10;96067.00;;;;5020925;28;20604;-66
2024/02/27 01:35:56;;;;;;;182.57;71.33;;;2.20;99.90;3.90;96069.00;;;;5026746;28;20485;-66
2024/02/27 01:38:46;;;;;;;180.63;70.13;;;2.20;99.90;3.80;96076.00;;;;5027563;28;21040;-65
2024/02/27 01:41:37;;;;;;;174.30;66.33;;;2.10;99.90;3.00;96069.00;;;;5026470;28;20415;-67
2024/02/27 01:44:25;;;;;;;180.97;71.60;;;1.80;99.90;3.30;96066.00;;;;5027093;28;20801;-65
2024/02/27 01:47:14;;;;;;;176.17;68.10;;;1.70;99.90;3.20;96070.00;;;;5036742;28;20432;-65
2024/02/27 01:50:04;;;;;;;190.53;73.27;;;1.60;99.90;3.30;96070.00;;;;5036013;28;20435;-66
2024/02/27 01:52:53;;;;;;;175.53;66.30;;;1.60;99.90;3.80;96079.00;;;;5031686;28;20436;-66
2024/02/27 01:55:44;;;;;;;171.87;65.93;;;1.60;99.90;3.60;96072.00;;;;5030269;28;20930;-66
2024/02/27 01:58:34;;;;;;;180.87;69.77;;;1.60;99.90;3.80;96067.00;;;;5035409;28;20444;-66
2024/02/27 02:01:24;;;;;;;179.07;66.10;;;1.60;99.90;3.90;96061.00;;;;5030912;28;20435;-66
2024/02/27 02:04:13;;;;;;;196.47;76.70;;;1.60;99.90;3.90;96064.00;;;;5025027;28;20445;-66
2024/02/27 02:07:02;;;;;;;184.27;71.50;;;1.60;99.90;3.80;96066.00;;;;5033778;28;20424;-66
2024/02/27 02:09:51;;;;;;;194.73;76.03;;;1.70;99.90;3.10;96052.00;;;;5027469;28;20424;-66
2024/02/27 02:12:42;;;;;;;177.43;67.37;;;1.60;99.90;3.20;96061.00;;;;5040025;28;20427;-65
2024/02/27 02:15:31;;;;;;;177.23;65.67;;;1.50;99.90;3.40;96076.00;;;;5032694;28;20423;-66
2024/02/27 02:18:20;;;;;;;182.73;68.60;;;1.50;99.90;3.50;96082.00;;;;5021998;28;20424;-66
2024/02/27 02:21:10;;;;;;;191.20;72.23;;;1.40;99.90;3.20;96069.00;;;;5034176;28;20438;-66
2024/02/27 02:24:00;;;;;;;181.30;68.13;;;1.40;99.90;3.20;96071.00;;;;5035993;28;20450;-66
2024/02/27 02:26:50;;;;;;;184.20;67.37;;;1.30;99.90;3.30;96074.00;;;;5032723;28;20435;-66
2024/02/27 02:29:39;;;;;;;192.87;74.97;;;1.30;99.90;3.30;96075.00;;;;5029029;28;20420;-66
2024/02/27 02:32:28;;;;;;;179.77;66.70;;;1.30;99.90;2.70;96068.00;;;;5024949;28;20440;-66
2024/02/27 02:35:17;;;;;;;190.30;71.53;;;1.20;99.90;2.90;96081.00;;;;5029863;28;20478;-66
2024/02/27 02:38:07;;;;;;;197.33;75.83;;;1.10;99.90;3.20;96069.00;;;;5034046;28;20424;-66
2024/02/27 02:40:56;;;;;;;178.43;65.07;;;1.20;99.90;2.80;96077.00;;;;5032064;28;20426;-67
2024/02/27 02:43:45;;;;;;;178.33;66.73;;;1.20;99.90;2.20;96071.00;;;;5027805;28;20460;-66
2024/02/27 02:46:35;;;;;;;178.40;64.90;;;1.10;99.90;2.30;96072.00;;;;5039359;28;20480;-67
2024/02/27 02:49:24;;;;;;;181.07;67.73;;;0.90;99.90;2.60;96078.00;;;;5029683;28;20431;-66
2024/02/27 02:52:13;;;;;;;182.40;69.00;;;0.90;99.90;3.10;96085.00;;;;5030130;28;20432;-66
2024/02/27 02:55:05;;;;;;;174.63;64.97;;;1.00;99.90;3.30;96079.00;;;;5033020;28;21015;-66
2024/02/27 02:57:55;;;;;;;182.37;68.17;;;1.10;99.90;3.40;96091.00;;;;5030048;28;20436;-65
2024/02/27 03:00:43;;;;;;;176.50;64.80;;;1.10;99.90;3.50;96089.00;;;;5032091;28;20428;-66
2024/02/27 03:03:32;;;;;;;175.83;65.13;;;1.20;99.90;3.40;96088.00;;;;5035035;28;20468;-65
2024/02/27 03:06:21;;;;;;;175.73;64.50;;;1.10;99.90;3.20;96088.00;;;;5033289;28;20432;-66
2024/02/27 03:09:11;;;;;;;194.87;74.57;;;1.20;99.90;2.60;96081.00;;;;5028583;28;20424;-66
2024/02/27 03:12:02;;;;;;;176.57;65.80;;;1.10;99.90;2.10;96083.00;;;;5027355;28;20810;-67
2024/02/27 03:14:51;;;;;;;177.37;66.27;;;0.90;99.90;2.20;96091.00;;;;5024783;28;20999;-65
2024/02/27 03:17:40;;;;;;;178.23;66.23;;;0.80;99.90;2.40;96095.00;;;;5030418;28;20432;-66
2024/02/27 03:20:29;;;;;;;175.13;66.33;;;0.80;99.90;2.50;96093.00;;;;5017727;28;20444;-65
2024/02/27 03:23:17;;;;;;;174.10;67.73;;;0.80;99.90;2.70;96097.00;;;;5026763;28;20460;-66
2024/02/27 03:26:06;;;;;;;178.77;69.37;;;0.70;99.90;2.40;96106.00;;;;5018296;28;20412;-66
2024/02/27 03:28:57;;;;;;;168.60;63.47;;;0.70;99.90;2.40;96107.00;;;;5031923;28;20424;-65
2024/02/27 03:31:46;;;;;;;167.67;63.70;;;0.60;99.90;2.50;96109.00;;;;5026924;28;20444;-66
2024/02/27 03:34:35;;;;;;;177.63;70.93;;;0.70;99.90;2.70;96115.00;;;;5029631;28;20467;-65
2024/02/27 03:37:24;;;;;;;167.97;65.00;;;0.70;99.90;2.90;96105.00;;;;5022275;28;20508;-66
2024/02/27 03:40:13;;;;;;;175.33;66.27;;;0.80;99.90;3.00;96117.00;;;;5027676;28;20443;-66
2024/02/27 03:43:02;;;;;;;174.67;64.93;;;1.00;99.90;3.30;96126.00;;;;5037027;28;20428;-66
2024/02/27 03:45:52;;;;;;;175.77;64.37;;;0.90;99.90;2.90;96118.00;;;;5028961;28;20471;-66
2024/02/27 03:48:41;;;;;;;177.50;67.33;;;0.90;99.90;2.70;96125.00;;;;5026050;28;20937;-65
2024/02/27 03:51:30;;;;;;;181.67;67.53;;;0.90;99.90;2.50;96124.00;;;;5024961;28;20787;-66
2024/02/27 03:54:19;;;;;;;187.33;71.77;;;0.90;99.90;2.30;96110.00;;;;5024464;28;20939;-66
2024/02/27 03:57:09;;;;;;;188.43;70.43;;;0.70;99.90;2.70;96126.00;;;;5031088;28;21295;-66
2024/02/27 03:59:58;;;;;;;196.67;74.37;;;0.80;99.90;2.80;96115.00;;;;5032982;28;20572;-65
2024/02/27 04:02:48;;;;;;;180.40;65.10;;;0.80;99.90;2.80;96114.00;;;;5029010;28;20798;-65
2024/02/27 04:05:37;;;;;;;182.13;66.83;;;0.80;99.90;2.70;96120.00;;;;5016655;28;21111;-66
2024/02/27 04:08:26;;;;;;;184.30;67.57;;;0.80;99.90;2.80;96120.00;;;;5030681;28;20548;-66
2024/02/27 04:11:15;;;;;;;186.03;67.87;;;0.80;99.90;3.10;96129.00;;;;5031995;28;20430;-66
2024/02/27 04:14:05;;;;;;;183.23;68.17;;;0.90;99.90;3.20;96129.00;;;;5031238;28;20451;-65
2024/02/27 04:16:54;;;;;;;174.37;63.70;;;0.90;99.90;3.00;96119.00;;;;5035590;28;20801;-65
2024/02/27 04:19:44;;;;;;;184.67;69.03;;;0.90;99.90;2.90;96129.00;;;;5030997;28;20435;-66
2024/02/27 04:22:34;;;;;;;177.47;63.80;;;0.90;99.90;2.70;96131.00;;;;5023269;28;20982;-66
2024/02/27 04:25:23;;;;;;;182.93;65.83;;;0.90;99.90;1.80;96130.00;;;;5032571;28;20487;-66
2024/02/27 04:28:11;;;;;;;184.87;69.17;;;0.70;99.90;2.10;96129.00;;;;5032113;28;20432;-66
2024/02/27 04:31:00;;;;;;;180.17;64.70;;;0.60;99.90;2.70;96142.00;;;;5019224;28;20431;-65
2024/02/27 04:33:49;;;;;;;177.80;63.63;;;0.60;99.90;2.60;96138.00;;;;5017268;28;21012;-66
2024/02/27 04:36:45;;;;;;;179.33;64.77;;;0.60;99.90;2.00;96131.00;;;;5025779;28;20440;-65
2024/02/27 04:39:34;;;;;;;177.00;65.37;;;0.60;99.90;2.40;96139.00;;;;5013060;28;20439;-65
2024/02/27 04:42:23;;;;;;;172.53;62.90;;;0.60;99.90;2.40;96138.00;;;;5030269;28;20437;-66
2024/02/27 04:45:11;;;;;;;190.03;70.73;;;0.60;99.90;2.20;96149.00;;;;5022611;28;20502;-65
2024/02/27 04:48:00;;;;;;;179.80;65.57;;;0.60;99.90;2.10;96145.00;;;;5037043;28;20433;-66
2024/02/27 04:50:49;;;;;;;181.23;65.17;;;0.50;99.90;2.50;96157.00;;;;5031078;28;20950;-65
2024/02/27 04:53:40;;;;;;;177.93;64.00;;;0.50;99.90;2.50;96154.00;;;;5021240;28;20467;-65
2024/02/27 04:56:28;;;;;;;185.13;66.73;;;0.60;99.90;2.90;96157.00;;;;5023444;28;20433;-66
2024/02/27 04:59:17;;;;;;;187.90;68.03;;;0.70;99.90;2.90;96149.00;;;;5029403;28;20448;-65
2024/02/27 05:02:06;;;;;;;190.70;67.70;;;0.70;99.90;2.60;96153.00;;;;5026926;28;20953;-66
2024/02/27 05:04:55;;;;;;;177.13;63.37;;;0.80;99.90;2.60;96169.00;;;;5020743;28;20479;-65
2024/02/27 05:07:44;;;;;;;186.60;65.77;;;0.80;99.90;2.50;96167.00;;;;5025608;28;20428;-65
2024/02/27 05:10:34;;;;;;;198.80;71.80;;;0.70;99.90;2.50;96171.00;;;;5021635;28;20436;-66
2024/02/27 05:13:23;;;;;;;187.97;66.47;;;0.70;99.90;2.80;96174.00;;;;5022215;28;20460;-65
2024/02/27 05:16:11;;;;;;;212.53;79.20;;;0.70;99.90;2.80;96163.00;;;;5013722;28;20941;-66
2024/02/27 05:19:00;;;;;;;190.13;66.33;;;0.70;99.90;2.60;96165.00;;;;5023327;28;20459;-65
2024/02/27 05:21:49;;;;;;;189.43;64.80;;;0.70;99.90;2.80;96175.00;;;;5023884;28;20987;-65
2024/02/27 05:24:39;;;;;;;203.07;74.67;;;0.70;99.90;2.60;96181.00;;;;5026383;28;20441;-66
2024/02/27 05:27:29;;;;;;;185.53;65.70;;;0.70;99.90;3.10;96186.00;;;;5035179;28;20487;-66
2024/02/27 05:30:18;;;;;;;188.93;70.40;;;0.70;99.90;2.50;96180.00;;;;5029861;28;20458;-64
2024/02/27 05:33:08;;;;;;;188.53;70.03;;;0.70;99.90;2.50;96188.00;;;;5024039;28;20428;-65
2024/02/27 05:35:57;;;;;;;177.80;67.03;;;0.70;99.90;2.20;96191.00;;;;5025100;28;20435;-66
2024/02/27 05:38:46;;;;;;;173.17;65.03;;;0.60;99.90;1.70;96172.00;;;;5026850;28;20454;-66
2024/02/27 05:41:34;;;;;;;173.27;64.13;;;0.50;99.90;2.10;96183.00;;;;5025234;28;20436;-65
2024/02/27 05:44:25;;;;;;;172.50;64.93;;;0.40;99.90;1.90;96194.00;;;;5021518;28;21275;-65
2024/02/27 05:47:13;;;;;;;173.47;67.40;;;0.40;99.90;2.00;96187.00;;;;5019072;28;20915;-65
2024/02/27 05:50:03;;;;;;;177.60;72.17;;;0.30;99.90;2.20;96191.00;;;;5020836;28;20473;-66
2024/02/27 05:52:52;;;;;;;157.97;63.23;;;1.00;99.90;2.50;96197.00;;;;5025113;28;20479;-65
2024/02/27 05:55:41;;;;;;;159.30;63.73;;;0.40;99.90;2.20;96193.00;;;;5021635;28;20425;-66
2024/02/27 05:58:30;;;;;;;157.27;65.10;;;0.50;99.90;1.80;96191.00;;;;5026152;28;20444;-66
2024/02/27 06:01:21;;;;;;;163.23;67.33;;;0.40;99.90;2.70;96202.00;;;;5030462;28;20519;-66
2024/02/27 06:04:09;;;;;;;170.93;69.13;;;0.50;99.90;3.00;96197.00;;;;5031948;28;20466;-66
2024/02/27 06:06:58;;;;;;;156.37;63.33;;;0.60;99.90;3.10;96201.00;;;;5033542;28;20838;-65
2024/02/27 06:09:47;;;;;;;179.03;70.07;;;0.70;99.90;2.60;96207.00;;;;5021889;28;20429;-67
2024/02/27 06:12:36;;;;;;;173.83;65.37;;;0.70;99.90;2.20;96207.00;;;;5035959;28;20441;-65
2024/02/27 06:15:25;;;;;;;166.83;62.67;;;0.70;99.90;2.50;96200.00;;;;5022256;28;20434;-65
2024/02/27 06:18:15;;;;;;;174.97;66.77;;;0.60;99.90;2.50;96199.00;;;;5025086;28;20975;-65
2024/02/27 06:24:10;;;;;;;185.93;71.10;;;0.70;99.90;2.90;96219.00;;;;5007840;28;20463;-66
2024/02/27 06:26:59;;;;;;;187.63;69.77;;;0.80;99.90;3.10;96205.00;;;;5030071;28;20471;-65
2024/02/27 06:29:49;;;;;;;203.10;74.27;;;0.90;99.90;3.30;96217.00;;;;5020767;28;20455;-66
2024/02/27 06:32:37;;;;;;;205.07;69.53;;;1.10;99.90;3.60;96221.00;;;;5025400;28;20427;-65
2024/02/27 06:35:28;;;;;;;207.03;67.73;;;1.20;99.90;3.80;96207.00;;;;5025897;28;20447;-65
2024/02/27 06:38:17;;;;;;;223.23;78.13;;;1.40;99.90;3.50;96201.00;;;;5029020;28;20443;-66
2024/02/27 06:41:06;;;;;;;205.40;69.50;;;1.40;99.90;3.40;96227.00;;;;5021975;28;20799;-67
2024/02/27 06:43:55;;;;;;;221.93;77.93;;;1.40;99.90;2.80;96229.00;;;;5028426;28;20452;-66
2024/02/27 06:46:45;;;;;;;216.47;71.07;;;1.40;99.90;3.50;96221.00;;;;5027393;28;21109;-66
2024/02/27 06:49:34;;;;;;;298.00;133.57;;;1.50;99.90;3.60;96236.00;;;;4996117;28;20428;-66
2024/02/27 06:52:24;;;;;;;331.83;160.37;;;1.50;99.90;3.50;96232.00;;;;4980648;28;20447;-66
2024/02/27 06:55:13;;;;;;;250.53;95.47;;;1.50;99.90;3.50;96229.00;;;;4972191;28;20535;-65
2024/02/27 06:58:02;;;;;;;211.93;73.13;;;1.60;99.90;4.00;96229.00;;;;4997253;28;20440;-65
2024/02/27 07:00:51;;;;;;;212.13;77.97;;;1.70;99.90;4.40;96241.00;;;;5019992;28;20431;-64
2024/02/27 07:03:40;;;;;;;294.13;141.87;;;1.90;99.90;4.40;96238.00;;;;4982956;28;20440;-65
2024/02/27 07:06:29;;;;;;;268.77;132.77;;;2.00;99.90;4.20;96240.00;;;;4987698;28;20480;-65
2024/02/27 07:09:19;;;;;;;314.47;149.70;;;2.00;99.90;3.60;96245.00;;;;4993077;28;20820;-65
2024/02/27 07:12:09;;;;;;;286.60;121.50;;;2.00;99.90;3.50;96247.00;;;;4993068;28;20425;-66
2024/02/27 07:14:58;;;;;;;320.43;148.07;;;1.90;99.90;3.30;96248.00;;;;4991041;28;20459;-66
2024/02/27 07:17:47;;;;;;;305.57;137.27;;;1.90;99.90;3.80;96254.00;;;;4975570;28;20455;-65
2024/02/27 07:20:36;;;;;;;281.47;117.33;;;1.90;99.90;3.90;96255.00;;;;4985281;28;20540;-65
2024/02/27 07:23:25;;;;;;;306.90;136.13;;;2.00;99.90;4.20;96257.00;;;;4984713;28;20802;-65
2024/02/27 07:26:15;;;;;;;252.83;90.77;;;2.10;99.90;4.20;96261.00;;;;4983257;28;20472;-65
2024/02/27 07:29:04;;;;;;;314.50;141.43;;;2.10;99.90;4.20;96259.00;;;;4991172;28;20420;-66
2024/02/27 07:31:53;;;;;;;231.53;74.27;;;2.20;99.90;4.00;96251.00;;;;5022784;28;20433;-65
2024/02/27 07:34:42;;;;;;;244.37;83.30;;;2.30;99.90;4.20;96253.00;;;;5013655;28;20879;-65
2024/02/27 07:37:31;;;;;;;233.33;75.00;;;2.30;99.90;4.40;96254.00;;;;5021194;28;20435;-65
2024/02/27 07:40:19;;;;;;;265.83;95.53;;;2.40;99.90;4.70;96252.00;;;;4990016;28;20444;-65
2024/02/27 07:43:10;;;;;;;338.70;155.67;;;2.70;99.90;4.80;96253.00;;;;4980809;28;20435;-64
2024/02/27 07:45:59;;;;;;;341.13;155.73;;;2.60;99.90;5.20;96264.00;;;;4989008;28;20468;-65
2024/02/27 07:48:48;;;;;;;299.97;121.90;;;2.80;99.90;5.60;96270.00;;;;4991144;28;20436;-68
2024/02/27 07:51:37;;;;;;;306.97;122.57;;;3.00;99.90;5.80;96270.00;;;;4986450;28;20456;-67
2024/02/27 07:54:27;;;;;;;317.13;128.87;;;3.20;99.90;5.70;96271.00;;;;4983522;28;20867;-68
2024/02/27 07:57:16;;;;;;;335.30;139.73;;;3.30;99.90;6.00;96270.00;;;;4989695;28;20437;-65
2024/02/27 08:00:09;;;;;;;297.50;103.87;;;3.40;99.90;6.10;96284.00;;;;4976963;28;20443;-64
2024/02/27 08:02:59;;;;;;;343.67;144.63;;;3.70;99.90;6.20;96286.00;;;;4984535;28;20424;-65
2024/02/27 08:05:48;;;;;;;306.37;110.57;;;3.70;99.90;6.40;96280.00;;;;4997062;28;20550;-65
2024/02/27 08:08:37;;;;;;;347.10;145.93;;;3.80;99.90;6.40;96282.00;;;;4990562;28;20490;-64
2024/02/27 08:11:26;;;;;;;306.80;110.17;;;3.90;99.90;6.60;96279.00;;;;4982877;28;20448;-65
2024/02/27 08:14:16;;;;;;;366.33;151.50;;;4.00;99.90;6.40;96279.00;;;;4983046;28;21026;-65
2024/02/27 08:17:07;;;;;;;294.50;93.97;;;4.10;99.90;6.50;96277.00;;;;4974012;28;20738;-65
2024/02/27 08:19:55;;;;;;;387.77;163.50;;;4.10;99.90;6.70;96286.00;;;;4980720;28;20883;-65
2024/02/27 08:22:44;;;;;;;291.53;82.00;;;4.20;99.90;6.40;96280.00;;;;4986917;28;20599;-65
2024/02/27 08:25:33;;;;;;;304.43;88.13;;;4.20;99.90;6.60;96277.00;;;;4999447;28;20441;-65
2024/02/27 08:28:22;;;;;;;369.67;139.10;;;4.30;99.90;6.70;96284.00;;;;4986827;28;20447;-64
2024/02/27 08:31:11;;;;;;;366.13;118.73;;;4.30;99.90;6.90;96282.00;;;;4986083;28;22281;-66
2024/02/27 08:34:04;;;;;;;377.03;124.00;;;4.40;99.90;7.10;96281.00;;;;4986760;28;20992;-65
2024/02/27 08:36:53;;;;;;;340.10;88.83;;;4.50;99.90;7.40;96287.00;;;;4987530;28;20456;-65
2024/02/27 08:39:42;;;;;;;365.27;117.73;;;4.70;99.90;7.60;96285.00;;;;4993501;28;20433;-64
2024/02/27 08:42:32;;;;;;;362.27;106.43;;;4.90;99.90;7.70;96292.00;;;;4986318;28;20448;-67
2024/02/27 08:45:21;;;;;;;388.47;131.47;;;5.00;99.90;7.90;96288.00;;;;4982881;28;20433;-64
2024/02/27 08:48:10;;;;;;;460.67;195.33;;;5.20;99.90;7.60;96291.00;;;;4979451;28;20472;-68
2024/02/27 08:51:00;;;;;;;370.77;108.43;;;5.30;99.90;8.30;96299.00;;;;4985516;28;22044;-64
2024/02/27 08:53:49;;;;;;;411.83;152.23;;;5.40;99.90;8.00;96290.00;;;;4984088;28;20444;-67
2024/02/27 08:56:44;;;;;;;387.90;135.27;;;5.50;99.90;7.90;96289.00;;;;4980909;28;21614;-65
2024/02/27 08:59:33;;;;;;;400.47;165.17;;;5.60;99.90;8.20;96282.00;;;;4975805;28;20439;-67
2024/02/27 09:02:23;;;;;;;313.40;95.63;;;5.70;99.90;8.40;96289.00;;;;5012015;28;20205;-66
2024/02/27 09:05:12;;;;;;;312.27;93.13;;;5.80;99.90;8.50;96287.00;;;;4991909;28;22041;-66
2024/02/27 09:08:03;;;;;;;381.37;138.47;;;4.80;99.90;9.10;96273.00;;;;4992630;28;20228;-67
2024/02/27 09:10:52;;;;;;;362.87;113.00;;;6.20;99.90;9.90;96281.00;;;;4985863;28;20216;-65
2024/02/27 09:13:41;;;;;;;387.83;135.40;;;6.50;99.90;10.20;96277.00;;;;4985449;28;20228;-66
2024/02/27 09:16:30;;;;;;;389.43;134.10;;;6.80;99.90;10.70;96282.00;;;;4986791;28;20201;-66
2024/02/27 09:19:20;;;;;;;417.67;163.63;;;7.20;99.90;10.20;96284.00;;;;4990928;28;20204;-67
2024/02/27 09:22:09;;;;;;;433.33;175.23;;;7.40;99.90;10.60;96289.00;;;;4988146;28;20258;-66
2024/02/27 09:25:00;;;;;;;393.93;143.87;;;7.60;99.90;11.10;96291.00;;;;4992710;28;20221;-66
2024/02/27 09:27:48;;;;;;;385.40;133.17;;;7.90;99.90;11.00;96308.00;;;;4994315;28;20733;-66
2024/02/27 09:30:37;;;;;;;390.30;138.10;;;8.10;99.90;11.70;96305.00;;;;4997381;28;21007;-67
2024/02/27 09:33:26;;;;;;;404.57;150.27;;;8.40;99.90;12.00;96304.00;;;;4984244;28;20229;-67
2024/02/27 09:36:15;;;;;;;407.07;151.57;;;8.70;99.90;11.80;96309.00;;;;4988189;28;20209;-66
2024/02/27 09:39:04;;;;;;;350.43;103.70;;;8.90;99.90;12.50;96308.00;;;;5019390;28;20202;-67
2024/02/27 09:42:07;;;;;;;413.23;164.80;;;9.10;99.90;12.60;96298.00;;;;4988834;28;20209;-68
2024/02/27 09:44:59;;;;;;;406.40;157.13;;;9.40;99.90;13.30;96306.00;;;;4991658;28;20229;-67
2024/02/27 09:47:54;;;;;;;401.73;150.63;;;9.40;99.90;13.40;96308.00;;;;4997110;28;20255;-66
2024/02/27 09:50:44;;;;;;;355.20;111.50;;;10.10;99.90;13.60;96312.00;;;;5015521;28;20201;-66
2024/02/27 09:53:33;;;;;;;355.57;115.63;;;10.30;99.90;13.70;96311.00;;;;5016941;28;20221;-66
2024/02/27 09:56:24;;;;;;;433.10;182.43;;;10.50;99.90;13.50;96309.00;;;;4994547;28;20193;-67
2024/02/27 09:59:14;;;;;;;416.83;168.40;;;10.50;99.90;13.50;96310.00;;;;4988024;28;20213;-67
2024/02/27 10:02:09;;;;;;;415.50;169.20;;;10.60;99.90;13.80;96316.00;;;;4992447;28;20205;-66
2024/02/27 10:04:59;;;;;;;363.50;122.20;;;10.70;99.90;13.80;96306.00;;;;4978366;28;20387;-65
2024/02/27 10:07:50;;;;;;;435.87;191.30;;;10.80;99.90;14.00;96301.00;;;;4988714;28;20229;-67
2024/02/27 10:10:41;;;;;;;379.33;136.60;;;10.90;99.90;14.10;96307.00;;;;4985385;28;20274;-66
2024/02/27 10:13:30;;;;;;;443.50;195.80;;;11.10;99.90;14.20;96316.00;;;;4982882;28;20225;-67
2024/02/27 10:16:23;;;;;;;382.20;139.73;;;11.20;99.90;14.70;96318.00;;;;4977043;28;20855;-67
2024/02/27 10:19:12;;;;;;;428.63;184.60;;;11.30;99.90;15.00;96319.00;;;;4996410;28;20205;-67
2024/02/27 10:22:02;;;;;;;409.63;165.97;;;11.50;99.90;14.90;96322.00;;;;4986095;28;20205;-67
2024/02/27 10:25:05;;;;;;;426.43;184.37;;;11.70;99.90;15.20;96315.00;;;;4990589;28;20229;-64
2024/02/27 10:27:56;;;;;;;418.75;180.40;;;11.90;99.90;15.20;96311.00;;;;4990251;28;20251;-66
2024/02/27 10:30:45;;;;;;;425.67;186.33;;;12.00;99.90;14.90;96327.00;;;;4987630;28;20588;-66
2024/02/27 10:33:36;;;;;;;433.73;196.10;;;12.10;99.90;15.50;96318.00;;;;4991007;28;20217;-67
2024/02/27 10:36:26;;;;;;;468.50;226.87;;;12.30;99.90;15.70;96318.00;;;;4972768;28;20292;-67
2024/02/27 10:39:15;;;;;;;468.33;231.03;;;12.40;99.90;15.80;96319.00;;;;4970252;28;20301;-67
2024/02/27 10:42:05;;;;;;;457.97;220.00;;;12.50;99.90;16.40;96315.00;;;;4973685;28;20212;-66
2024/02/27 10:44:56;;;;;;;463.77;230.63;;;12.80;99.90;16.60;96332.00;;;;4972397;28;20229;-66
2024/02/27 10:47:48;;;;;;;461.40;230.27;;;13.00;99.90;16.70;96326.00;;;;4973716;28;20270;-67
2024/02/27 10:50:39;;;;;;;438.37;204.97;;;13.20;99.90;16.40;96326.00;;;;4973690;28;22060;-66
2024/02/27 10:53:28;;;;;;;382.53;163.03;;;13.40;99.90;16.50;96325.00;;;;5019671;28;20224;-67
2024/02/27 10:56:19;;;;;;;475.03;248.10;;;13.40;99.90;15.90;96326.00;;;;4976930;28;20208;-67
2024/02/27 10:59:08;;;;;;;394.10;173.23;;;13.40;99.00;16.00;96328.00;;;;4968493;28;20724;-66
2024/02/27 11:02:00;;;;;;;476.93;251.47;;;13.40;99.00;16.20;96319.00;;;;4975781;28;20581;-67
2024/02/27 11:04:52;;;;;;;420.43;201.47;;;13.40;98.10;16.50;96324.00;;;;4965465;28;20221;-67
2024/02/27 11:07:43;;;;;;;409.80;192.97;;;13.50;98.60;16.20;96324.00;;;;4978707;28;20229;-66
2024/02/27 11:10:32;;;;;;;378.77;165.07;;;13.60;98.00;16.50;96327.00;;;;4995787;28;20409;-67
2024/02/27 11:13:23;;;;;;;394.67;179.00;;;13.60;97.70;16.70;96327.00;;;;5014583;28;20228;-67
2024/02/27 11:16:15;;;;;;;381.07;167.87;;;13.60;97.80;16.90;96319.00;;;;5022307;28;20203;-67
2024/02/27 11:19:12;;;;;;;467.30;251.07;;;13.60;98.20;16.50;96321.00;;;;5020613;28;20674;-67
2024/02/27 11:22:02;;;;;;;392.43;172.80;;;13.60;97.60;16.90;96334.00;;;;5006200;28;20205;-66
2024/02/27 11:24:52;;;;;;;428.17;213.03;;;13.40;97.70;17.00;96328.00;;;;4982543;28;20718;-67
2024/02/27 11:27:42;;;;;;;379.17;166.53;;;13.70;98.10;16.90;96329.00;;;;5026847;28;20688;-67
2024/02/27 11:30:34;;;;;;;373.93;166.70;;;13.70;98.20;16.70;96340.00;;;;5026361;28;20709;-66
2024/02/27 11:33:23;;;;;;;377.90;169.50;;;13.60;97.70;16.80;96348.00;;;;5029342;28;20221;-67
2024/02/27 11:36:13;;;;;;;374.83;165.77;;;13.60;97.60;16.70;96343.00;;;;5022704;28;20209;-67
2024/02/27 11:39:01;;;;;;;373.90;159.63;;;13.60;97.70;16.30;96350.00;;;;5012745;28;20252;-66
2024/02/27 11:41:52;;;;;;;367.13;157.83;;;13.50;96.90;16.30;96348.00;;;;5031753;28;20209;-66
2024/02/27 11:45:03;;;;;;;381.40;164.40;;;13.40;96.50;16.30;96350.00;;;;5022143;28;20225;-66
2024/02/27 11:47:53;;;;;;;370.20;154.43;;;13.30;96.60;16.20;96352.00;;;;5023676;28;20307;-67
2024/02/27 11:50:48;;;;;;;368.40;155.00;;;13.30;97.00;16.20;96342.00;;;;5032649;28;20193;-67
2024/02/27 11:53:40;;;;;;;367.27;152.77;;;13.20;97.00;16.00;96345.00;;;;5029310;28;20299;-67
2024/02/27 11:56:29;;;;;;;373.33;156.30;;;13.20;96.70;16.00;96340.00;;;;5025918;28;20205;-66
2024/02/27 11:59:19;;;;;;;382.97;160.37;;;13.10;96.30;16.10;96340.00;;;;5027245;28;20205;-66
2024/02/27 12:02:08;;;;;;;370.85;153.30;;;13.10;96.30;16.00;96349.00;;;;5032306;28;20422;-66
2024/02/27 12:04:57;;;;;;;367.80;148.23;;;13.00;95.70;16.00;96341.00;;;;5011872;28;20236;-67
2024/02/27 12:07:46;;;;;;;378.77;157.33;;;13.00;96.00;16.00;96347.00;;;;5025025;28;20216;-68
2024/02/27 12:10:35;;;;;;;362.70;145.30;;;13.00;96.00;16.00;96356.00;;;;5020948;28;20213;-66
2024/02/27 12:13:25;;;;;;;379.17;158.47;;;12.90;95.90;15.80;96346.00;;;;5026149;28;20228;-67
2024/02/27 12:16:24;;;;;;;;;;;12.90;95.90;16.00;96349.00;;;;5028062;28;20213;-67
2024/02/27 12:19:13;;;;;;;381.03;156.87;;;12.90;96.40;16.00;96349.00;;;;5024621;28;20588;-67
2024/02/27 12:22:04;;;;;;;367.90;147.43;;;12.90;96.40;15.90;96351.00;;;;5022750;28;20213;-67
2024/02/27 12:24:58;;;;;;;370.83;151.60;;;12.90;96.50;15.80;96355.00;;;;5019013;28;20229;-67